EGTE/EXT METAR and TAF weather

Enter ICAO airport designator
Station Type Date Time Source
EGTE METAR 2019/05/19 06:50 UTC NOAA

EGTE 190650Z 30007KT 260V330 9999 FEW030 11/09 Q1009


Station Type Date Time Source
EGTE Decoded METAR 2019/05/19 06:50 UTC NOAA

Exeter Airport, United Kingdom (EGTE) 50-44N 003-25W
May 19, 2019 - 02:50 AM EDT / 2019.05.19 0650 UTC
Wind: from the WNW (300 degrees) at 8 MPH (7 KT) (direction variable):0
Visibility: greater than 7 mile(s):0
Sky conditions: mostly clear
Temperature: 51 F (11 C)
Dew Point: 48 F (9 C)
Relative Humidity: 87%
Pressure (altimeter): 29.80 in. Hg (1009 hPa)
ob: EGTE 190650Z 30007KT 260V330 9999 FEW030 11/09 Q1009
cycle: 7

Station Type Date Time Source
EGTE TAF 2012/04/19 12:15 UTC NOAA

TAF TAF EGTE 191401Z 1912/1924 31016KT 9999 SCT030 SCT035 PROB40
TEMPO 1915/1918 7000 SHRA BKN014

Example: see airport list